Archival Weather

Norman Y Mineta San Jose Intl

San Jose, California (KSJC)

Report from: Friday, February 2, 2024 6:53 AM PST
Current time: Friday, June 21, 2024 1:45 AM PDT

Current weather – Weather history – Daily summaries
Weather forecast

Present weatherLight rain, mist
Temperature10.0°C (50.0°F)
Wind chill8.2°C (46.7°F)
Dew point7.8°C (46.0°F)
Winds 7 kts (3.6 m/s, 8.1 mph) South (180°)
Visibility5 mi. (8 km)
Clouds Few clouds 2,000 ft. (610 m)
Ceiling: Broken clouds 3,300 ft. (1,006 m)
Overcast 4,300 ft. (1,311 m)
Altimeter29.88 in.Hg (1012 mB)
Precipitiation0.02 in. (1 mm)
Precip. events Rain began 2:51 PM
Precip last 3 hours0.03 in. (1 mm)
Relative humidity86 %
Density altitude-390 ft. (-119 m)
Sea-level pressure101.2 kPa (1012 mB, 29.87 in.Hg)
Remarks Automated weather observing station with precipitation discriminator
Pressure rising more quickly
Flight conditions Visual Meteorological Conditions
Raw dataKSJC 021453Z 18007KT 5SM -RA BR FEW020 BKN033 OVC043 10/08 A2988 RMK AO2 RAB51 SLP116 P0002 60003 T01000078 53018
An error has occurred. This application may no longer respond until reloaded. Reload 🗙